Time;durP1;ratioP1;P1;durP2;ratioP2;P2;SDS_P1;SDS_P2;PMS_P1;PMS_P2;Temp;Humidity;BMP_temperature;BMP_pressure;BME280_temperature;BME280_humidity;BME280_pressure;Samples;Min_cycle;Max_cycle;Signal;HPM_P1;HPM_P2
2022/11/20 00:00:17;0.00;0.00;0.62;0.00;0.00;0.62;2.53;2.00;;;21.00;23.10;;;;;;2253697;61;20443;-72
2022/11/20 00:03:03;0.00;0.00;0.62;0.00;0.00;0.62;3.13;2.20;;;21.10;23.20;;;;;;2254142;61;20945;-72
2022/11/20 00:05:48;0.00;0.00;0.62;0.00;0.00;0.62;2.30;1.77;;;21.10;23.20;;;;;;2253952;61;20516;-71
2022/11/20 00:08:34;0.00;0.00;0.62;0.00;0.00;0.62;2.60;2.03;;;21.00;23.10;;;;;;2253656;61;20474;-69
2022/11/20 00:11:21;0.00;0.00;0.62;0.00;0.00;0.62;1.90;1.60;;;21.00;23.10;;;;;;2253941;61;20428;-71
2022/11/20 00:14:06;0.00;0.00;0.62;0.00;0.00;0.62;2.30;1.60;;;21.10;23.20;;;;;;2254051;61;20417;-70
2022/11/20 00:16:50;0.00;0.00;0.62;0.00;0.00;0.62;2.40;1.80;;;21.10;23.80;;;;;;2253278;61;20365;-71
2022/11/20 00:19:37;0.00;0.00;0.62;0.00;0.00;0.62;3.00;2.20;;;21.10;23.20;;;;;;2254093;61;20381;-69
2022/11/20 00:22:22;0.00;0.00;0.62;0.00;0.00;0.62;2.27;1.80;;;21.10;23.20;;;;;;2253811;61;20398;-71
2022/11/20 00:25:07;0.00;0.00;0.62;0.00;0.00;0.62;2.10;1.67;;;21.10;23.30;;;;;;2254588;61;20362;-69
2022/11/20 00:27:52;0.00;0.00;0.62;0.00;0.00;0.62;2.40;1.90;;;21.00;23.20;;;;;;2253788;61;20357;-73
2022/11/20 00:30:37;0.00;0.00;0.62;0.00;0.00;0.62;1.90;1.60;;;21.00;23.20;;;;;;2253470;61;20760;-72
2022/11/20 00:33:22;0.00;0.00;0.62;0.00;0.00;0.62;2.53;1.60;;;21.00;23.20;;;;;;2255538;61;20377;-70
2022/11/20 00:36:11;0.00;0.00;0.62;0.00;0.00;0.62;2.40;2.00;;;21.00;23.20;;;;;;2256078;61;20862;-70
2022/11/20 00:38:57;0.00;0.00;0.62;0.00;0.00;0.62;2.00;1.53;;;21.00;23.20;;;;;;2256389;61;20382;-71
2022/11/20 00:41:42;0.00;0.00;0.62;0.00;0.00;0.62;2.90;1.90;;;21.00;23.20;;;;;;2256543;61;20420;-71
2022/11/20 00:44:26;0.00;0.00;0.62;0.00;0.00;0.62;2.53;1.83;;;21.00;23.20;;;;;;2255829;61;20358;-70
2022/11/20 00:47:11;0.00;0.00;0.62;0.00;0.00;0.62;1.97;1.60;;;21.00;23.30;;;;;;2255957;61;20786;-70
2022/11/20 00:49:56;0.00;0.00;0.62;0.00;0.00;0.62;2.70;1.80;;;21.00;23.30;;;;;;2255926;61;20775;-71
2022/11/20 00:52:42;0.00;0.00;0.62;0.00;0.00;0.62;2.87;2.30;;;21.00;23.30;;;;;;2256553;61;20381;-70
2022/11/20 00:55:27;0.00;0.00;0.62;0.00;0.00;0.62;2.27;1.73;;;21.00;23.30;;;;;;2255648;61;20354;-71
2022/11/20 00:58:11;0.00;0.00;0.62;0.00;0.00;0.62;2.47;2.07;;;21.00;23.30;;;;;;2255779;61;20389;-71
2022/11/20 01:01:01;0.00;0.00;0.62;0.00;0.00;0.62;2.60;1.87;;;21.00;23.30;;;;;;2256522;61;20358;-71
2022/11/20 01:03:48;0.00;0.00;0.62;0.00;0.00;0.62;1.87;1.50;;;21.00;23.30;;;;;;2256093;61;20354;-70
2022/11/20 01:06:36;0.00;0.00;0.62;0.00;0.00;0.62;2.27;1.70;;;21.00;23.30;;;;;;2255317;61;20365;-70
2022/11/20 01:09:22;0.00;0.00;0.62;0.00;0.00;0.62;2.17;1.70;;;20.90;23.80;;;;;;2255716;61;20443;-69
2022/11/20 01:12:07;0.00;0.00;0.62;0.00;0.00;0.62;2.67;2.13;;;21.00;23.40;;;;;;2256130;61;20362;-72
2022/11/20 01:14:51;0.00;0.00;0.62;0.00;0.00;0.62;2.53;2.20;;;21.00;23.30;;;;;;2256391;61;20835;-72
2022/11/20 01:17:36;0.00;0.00;0.62;0.00;0.00;0.62;2.83;1.93;;;20.90;23.30;;;;;;2255860;61;20397;-69
2022/11/20 01:20:21;0.00;0.00;0.62;0.00;0.00;0.62;2.97;2.00;;;20.90;23.30;;;;;;2255791;61;20389;-73
2022/11/20 01:23:05;0.00;0.00;0.62;0.00;0.00;0.62;3.40;2.80;;;20.90;23.20;;;;;;2256567;61;20358;-69
2022/11/20 01:25:52;0.00;0.00;0.62;0.00;0.00;0.62;3.63;2.70;;;20.90;23.70;;;;;;2255821;61;20366;-75
2022/11/20 01:28:37;0.00;0.00;0.62;0.00;0.00;0.62;3.90;2.70;;;20.90;23.10;;;;;;2255078;61;20861;-74
2022/11/20 01:31:24;0.00;0.00;0.62;0.00;0.00;0.62;2.90;2.30;;;20.90;23.10;;;;;;2256203;61;20362;-74
2022/11/20 01:34:12;0.00;0.00;0.62;0.00;0.00;0.62;3.23;2.47;;;20.90;23.10;;;;;;2256371;61;20431;-75
2022/11/20 01:36:57;0.00;0.00;0.62;0.00;0.00;0.62;3.33;2.17;;;20.90;23.10;;;;;;2256085;61;20416;-75
2022/11/20 01:39:41;0.00;0.00;0.62;0.00;0.00;0.62;3.00;2.70;;;20.90;23.20;;;;;;2255887;61;20380;-74
2022/11/20 01:46:14;0.00;0.00;0.62;0.00;0.00;0.62;2.70;2.20;;;20.90;23.20;;;;;;2256533;61;20769;-74
2022/11/20 01:49:04;0.00;0.00;0.62;0.00;0.00;0.62;2.83;2.47;;;20.90;23.20;;;;;;2239547;61;20440;-74
2022/11/20 01:51:52;0.00;0.00;0.62;0.00;0.00;0.62;3.80;2.40;;;20.90;23.20;;;;;;2255874;61;20378;-74
2022/11/20 01:54:43;0.00;0.00;0.62;0.00;0.00;0.62;3.10;2.43;;;20.90;23.20;;;;;;2256032;61;20448;-74
2022/11/20 01:57:32;0.00;0.00;0.62;0.00;0.00;0.62;3.00;2.30;;;20.90;23.20;;;;;;2255587;61;20398;-75
2022/11/20 02:00:20;0.00;0.00;0.62;0.00;0.00;0.62;3.67;2.77;;;20.90;23.20;;;;;;2256702;61;20373;-74
2022/11/20 02:03:09;0.00;0.00;0.62;0.00;0.00;0.62;3.20;2.47;;;20.90;23.70;;;;;;2256572;61;20405;-74
2022/11/20 02:06:03;0.00;0.00;0.62;0.00;0.00;0.62;3.57;2.50;;;20.90;23.20;;;;;;2256614;61;20417;-75
2022/11/20 02:08:48;0.00;0.00;0.62;0.00;0.00;0.62;3.10;2.30;;;20.90;23.20;;;;;;2256538;61;20474;-74
2022/11/20 02:11:33;0.00;0.00;0.62;0.00;0.00;0.62;2.80;2.10;;;20.90;23.20;;;;;;2256579;61;20373;-75
2022/11/20 02:14:20;0.00;0.00;0.62;0.00;0.00;0.62;2.50;2.10;;;20.80;23.10;;;;;;2256967;61;20892;-76
2022/11/20 02:17:05;0.00;0.00;0.62;0.00;0.00;0.62;3.50;2.47;;;20.80;23.30;;;;;;2256631;61;20424;-73
2022/11/20 02:19:50;0.00;0.00;0.62;0.00;0.00;0.62;3.27;2.47;;;20.80;23.30;;;;;;2255708;61;20421;-66
2022/11/20 02:22:42;0.00;0.00;0.62;0.00;0.00;0.62;2.53;2.33;;;20.80;23.30;;;;;;2256959;61;20936;-69
2022/11/20 02:25:30;0.00;0.00;0.62;0.00;0.00;0.62;3.50;3.17;;;20.80;23.30;;;;;;2256984;61;20358;-70
2022/11/20 02:28:17;0.00;0.00;0.62;0.00;0.00;0.62;3.80;3.20;;;20.80;23.10;;;;;;2256377;61;20448;-68
2022/11/20 02:31:01;0.00;0.00;0.62;0.00;0.00;0.62;3.33;3.00;;;20.80;23.10;;;;;;2256515;61;20373;-68
2022/11/20 02:33:46;0.00;0.00;0.62;0.00;0.00;0.62;4.47;3.67;;;20.80;22.90;;;;;;2256241;61;20381;-69
2022/11/20 02:36:33;0.00;0.00;0.62;0.00;0.00;0.62;5.10;4.37;;;20.80;22.90;;;;;;2256669;61;20362;-69
2022/11/20 02:39:20;0.00;0.00;0.62;0.00;0.00;0.62;4.70;4.07;;;20.80;22.80;;;;;;2256421;61;20440;-69
2022/11/20 02:42:06;0.00;0.00;0.62;0.00;0.00;0.62;5.77;4.60;;;20.80;22.70;;;;;;2256146;61;20409;-69
2022/11/20 02:44:51;0.00;0.00;0.62;0.00;0.00;0.62;5.00;4.10;;;20.80;22.60;;;;;;2256617;61;20894;-69
2022/11/20 02:47:36;0.00;0.00;0.62;0.00;0.00;0.62;5.07;4.57;;;20.70;22.50;;;;;;2256751;61;20952;-69
2022/11/20 02:50:20;0.00;0.00;0.62;0.00;0.00;0.62;5.43;4.60;;;20.70;22.40;;;;;;2256397;61;20405;-68
2022/11/20 02:53:05;0.00;0.00;0.62;0.00;0.00;0.62;5.00;4.47;;;20.70;22.30;;;;;;2256406;61;20370;-69
2022/11/20 02:55:50;0.00;0.00;0.62;0.00;0.00;0.62;5.20;4.20;;;20.70;22.30;;;;;;2255804;61;20417;-69
2022/11/20 02:58:36;0.00;0.00;0.62;0.00;0.00;0.62;5.33;4.53;;;20.70;22.10;;;;;;2256603;61;20382;-69
2022/11/20 03:01:21;0.00;0.00;0.62;0.00;0.00;0.62;5.37;4.57;;;20.70;22.10;;;;;;2256428;61;20370;-69
2022/11/20 03:04:06;0.00;0.00;0.62;0.00;0.00;0.62;6.00;5.07;;;20.70;22.10;;;;;;2256167;61;20753;-70
2022/11/20 03:06:51;0.00;0.00;0.62;0.00;0.00;0.62;5.40;4.90;;;20.60;21.90;;;;;;2256694;61;20398;-70
2022/11/20 03:09:35;0.00;0.00;0.62;0.00;0.00;0.62;5.27;4.47;;;20.60;21.90;;;;;;2256711;61;20944;-69
2022/11/20 03:12:20;0.00;0.00;0.62;0.00;0.00;0.62;5.63;5.03;;;20.60;21.90;;;;;;2256212;61;20365;-69
2022/11/20 03:15:08;0.00;0.00;0.62;0.00;0.00;0.62;6.23;5.63;;;20.50;21.80;;;;;;2256339;61;20803;-69
2022/11/20 03:17:54;0.00;0.00;0.62;0.00;0.00;0.62;5.83;5.20;;;20.50;21.70;;;;;;2256318;61;20405;-69
2022/11/20 03:20:39;0.00;0.00;0.62;0.00;0.00;0.62;5.30;4.57;;;20.50;21.70;;;;;;2256736;61;20393;-69
2022/11/20 03:23:24;0.00;0.00;0.62;0.00;0.00;0.62;5.37;4.10;;;20.50;21.70;;;;;;2256475;61;20370;-68
2022/11/20 03:26:13;0.00;0.00;0.62;0.00;0.00;0.62;6.43;5.47;;;20.40;21.60;;;;;;2256211;61;20413;-69
2022/11/20 03:29:01;0.00;0.00;0.62;0.00;0.00;0.62;7.00;5.03;;;20.40;21.60;;;;;;2256957;61;20984;-69
2022/11/20 03:31:47;0.00;0.00;0.62;0.00;0.00;0.62;5.17;4.67;;;20.40;21.60;;;;;;2256675;61;20405;-69
2022/11/20 03:34:32;0.00;0.00;0.62;0.00;0.00;0.62;5.67;5.07;;;20.40;21.50;;;;;;2256110;61;20970;-69
2022/11/20 03:37:17;0.00;0.00;0.62;0.00;0.00;0.62;6.50;5.00;;;20.30;21.50;;;;;;2256234;61;20361;-68
2022/11/20 03:40:03;0.00;0.00;0.62;0.00;0.00;0.62;5.53;4.97;;;20.30;21.50;;;;;;2256562;61;20425;-68
2022/11/20 03:42:48;0.00;0.00;0.62;0.00;0.00;0.62;5.00;4.50;;;20.30;21.50;;;;;;2256669;61;20428;-69
2022/11/20 03:45:32;0.00;0.00;0.62;0.00;0.00;0.62;6.13;4.90;;;20.30;21.50;;;;;;2256406;61;20366;-69
2022/11/20 03:48:18;0.00;0.00;0.62;0.00;0.00;0.62;4.70;4.20;;;20.20;21.40;;;;;;2255841;61;20414;-69
2022/11/20 03:51:12;0.00;0.00;0.62;0.00;0.00;0.62;5.60;4.57;;;20.20;21.40;;;;;;2256808;61;20370;-69
2022/11/20 03:53:59;0.00;0.00;0.62;0.00;0.00;0.62;5.17;4.57;;;20.20;21.40;;;;;;2256653;61;20508;-68
2022/11/20 03:56:43;0.00;0.00;0.62;0.00;0.00;0.62;6.90;5.13;;;20.10;21.40;;;;;;2255929;61;20755;-69
2022/11/20 03:59:28;0.00;0.00;0.62;0.00;0.00;0.62;5.97;5.27;;;20.10;21.40;;;;;;2256059;61;20390;-69
2022/11/20 04:02:12;0.00;0.00;0.62;0.00;0.00;0.62;5.33;4.83;;;20.10;21.40;;;;;;2256681;61;20362;-69
2022/11/20 04:04:58;0.00;0.00;0.62;0.00;0.00;0.62;5.73;5.13;;;20.10;21.40;;;;;;2256740;61;20441;-69
2022/11/20 04:07:43;0.00;0.00;0.62;0.00;0.00;0.62;7.40;5.30;;;20.00;21.40;;;;;;2256075;61;20772;-69
2022/11/20 04:10:28;0.00;0.00;0.62;0.00;0.00;0.62;5.03;4.43;;;20.00;21.40;;;;;;2255815;61;20412;-69
2022/11/20 04:13:13;0.00;0.00;0.62;0.00;0.00;0.62;6.60;5.30;;;19.90;21.30;;;;;;2256733;61;20952;-68
2022/11/20 04:15:58;0.00;0.00;0.62;0.00;0.00;0.62;5.70;4.90;;;19.90;21.30;;;;;;2256297;61;20438;-70
2022/11/20 04:18:43;0.00;0.00;0.62;0.00;0.00;0.62;5.00;4.50;;;19.90;21.30;;;;;;2255743;61;20880;-68
2022/11/20 04:21:29;0.00;0.00;0.62;0.00;0.00;0.62;6.60;5.20;;;19.90;21.30;;;;;;2256141;61;20361;-69
2022/11/20 04:24:14;0.00;0.00;0.62;0.00;0.00;0.62;5.33;4.83;;;19.90;21.30;;;;;;2256535;61;20914;-69
2022/11/20 04:26:58;0.00;0.00;0.62;0.00;0.00;0.62;5.80;5.30;;;19.80;21.20;;;;;;2256274;61;20357;-68
2022/11/20 04:29:43;0.00;0.00;0.62;0.00;0.00;0.62;5.30;4.80;;;19.80;21.30;;;;;;2256187;61;20779;-69
2022/11/20 04:32:28;0.00;0.00;0.62;0.00;0.00;0.62;5.57;4.87;;;19.80;21.30;;;;;;2255473;61;20397;-69
2022/11/20 04:35:13;0.00;0.00;0.62;0.00;0.00;0.62;5.27;4.87;;;19.80;21.30;;;;;;2255992;61;20448;-69
2022/11/20 04:37:59;0.00;0.00;0.62;0.00;0.00;0.62;5.17;4.67;;;19.70;21.20;;;;;;2255959;61;20385;-69
2022/11/20 04:40:44;0.00;0.00;0.62;0.00;0.00;0.62;7.20;5.17;;;19.70;21.20;;;;;;2256148;61;20378;-69
2022/11/20 04:43:29;0.00;0.00;0.62;0.00;0.00;0.62;6.93;5.70;;;19.70;21.70;;;;;;2255971;61;20417;-69
2022/11/20 04:46:14;0.00;0.00;0.62;0.00;0.00;0.62;7.07;5.83;;;19.60;21.10;;;;;;2256547;61;20370;-69
2022/11/20 04:48:59;0.00;0.00;0.62;0.00;0.00;0.62;6.00;4.93;;;19.60;21.10;;;;;;2255880;61;20481;-69
2022/11/20 04:51:44;0.00;0.00;0.62;0.00;0.00;0.62;7.17;6.47;;;19.60;21.10;;;;;;2256253;61;20369;-69
2022/11/20 04:54:30;0.00;0.00;0.62;0.00;0.00;0.62;6.33;5.20;;;19.60;21.10;;;;;;2255674;61;20485;-69
2022/11/20 04:57:15;0.00;0.00;0.62;0.00;0.00;0.62;6.00;5.07;;;19.60;21.10;;;;;;2256377;61;20921;-69
2022/11/20 04:59:59;0.00;0.00;0.62;0.00;0.00;0.62;5.47;4.97;;;19.50;21.00;;;;;;2255919;61;20401;-69
2022/11/20 05:02:44;0.00;0.00;0.62;0.00;0.00;0.62;5.30;4.80;;;19.50;21.00;;;;;;2255837;61;20378;-69
2022/11/20 05:05:29;0.00;0.00;0.62;0.00;0.00;0.62;5.70;4.77;;;19.50;21.10;;;;;;2256082;61;20353;-69
2022/11/20 05:08:13;0.00;0.00;0.62;0.00;0.00;0.62;5.30;4.63;;;19.40;21.00;;;;;;2256289;61;20979;-69
2022/11/20 05:11:03;0.00;0.00;0.62;0.00;0.00;0.62;5.73;5.23;;;19.40;21.00;;;;;;2255904;61;20358;-69
2022/11/20 05:13:48;0.00;0.00;0.62;0.00;0.00;0.62;6.93;5.90;;;19.40;21.60;;;;;;2255580;61;20432;-69
2022/11/20 05:16:35;0.00;0.00;0.62;0.00;0.00;0.62;5.93;5.33;;;19.40;21.00;;;;;;2255718;61;20412;-69
2022/11/20 05:19:20;0.00;0.00;0.62;0.00;0.00;0.62;5.17;4.67;;;19.40;21.10;;;;;;2256254;61;20472;-69
2022/11/20 05:22:05;0.00;0.00;0.62;0.00;0.00;0.62;5.93;5.07;;;19.40;21.00;;;;;;2255535;61;20365;-69
2022/11/20 05:24:50;0.00;0.00;0.62;0.00;0.00;0.62;5.80;5.10;;;19.30;21.00;;;;;;2255844;61;20382;-69
2022/11/20 05:27:36;0.00;0.00;0.62;0.00;0.00;0.62;6.50;5.13;;;19.30;21.00;;;;;;2256093;61;20365;-69
2022/11/20 05:30:20;0.00;0.00;0.62;0.00;0.00;0.62;5.20;4.70;;;19.30;21.00;;;;;;2256460;61;20448;-69
2022/11/20 05:33:05;0.00;0.00;0.62;0.00;0.00;0.62;5.60;4.93;;;19.30;21.00;;;;;;2255589;61;20370;-69
2022/11/20 05:35:50;0.00;0.00;0.62;0.00;0.00;0.62;5.90;4.90;;;19.30;21.00;;;;;;2255858;61;20390;-69
2022/11/20 05:38:34;0.00;0.00;0.62;0.00;0.00;0.62;7.10;5.40;;;19.30;21.10;;;;;;2255242;61;20444;-69
2022/11/20 05:41:20;0.00;0.00;0.62;0.00;0.00;0.62;7.77;4.77;;;19.20;21.00;;;;;;2255832;61;20369;-70
2022/11/20 05:44:06;0.00;0.00;0.62;0.00;0.00;0.62;5.60;4.90;;;19.20;21.00;;;;;;2255439;61;20366;-70
2022/11/20 05:46:51;0.00;0.00;0.62;0.00;0.00;0.62;6.80;5.43;;;19.20;21.00;;;;;;2255623;61;20401;-70
2022/11/20 05:49:36;0.00;0.00;0.62;0.00;0.00;0.62;4.80;4.40;;;19.20;21.00;;;;;;2256263;61;20385;-69
2022/11/20 05:52:21;0.00;0.00;0.62;0.00;0.00;0.62;5.63;5.03;;;19.20;21.00;;;;;;2255852;61;20358;-69
2022/11/20 05:55:07;0.00;0.00;0.62;0.00;0.00;0.62;7.70;5.50;;;19.10;21.00;;;;;;2254997;61;20481;-69
2022/11/20 05:57:53;0.00;0.00;0.62;0.00;0.00;0.62;6.53;5.50;;;19.10;21.00;;;;;;2255855;61;20461;-70
2022/11/20 06:00:39;0.00;0.00;0.62;0.00;0.00;0.62;5.90;5.30;;;19.10;21.00;;;;;;2255697;61;20852;-69
2022/11/20 06:03:24;0.00;0.00;0.62;0.00;0.00;0.62;6.50;5.73;;;19.10;21.00;;;;;;2256406;61;20377;-69
2022/11/20 06:06:09;0.00;0.00;0.62;0.00;0.00;0.62;4.73;4.33;;;19.10;21.50;;;;;;2255860;61;20454;-69
2022/11/20 06:08:55;0.00;0.00;0.62;0.00;0.00;0.62;5.47;4.63;;;19.00;20.90;;;;;;2255344;61;20385;-69
2022/11/20 06:11:39;0.00;0.00;0.62;0.00;0.00;0.62;6.10;5.03;;;19.00;20.90;;;;;;2256320;61;20772;-69
2022/11/20 06:14:24;0.00;0.00;0.62;0.00;0.00;0.62;5.30;4.80;;;19.00;20.90;;;;;;2255918;61;20791;-70
2022/11/20 06:17:10;0.00;0.00;0.62;0.00;0.00;0.62;5.20;4.70;;;19.00;21.00;;;;;;2255445;61;20366;-70
2022/11/20 06:19:54;0.00;0.00;0.62;0.00;0.00;0.62;6.10;5.50;;;18.90;20.90;;;;;;2255838;61;20459;-69
2022/11/20 06:22:39;0.00;0.00;0.62;0.00;0.00;0.62;6.50;5.70;;;18.90;20.90;;;;;;2256070;61;20378;-69
2022/11/20 06:25:24;0.00;0.00;0.62;0.00;0.00;0.62;5.70;5.20;;;18.90;20.90;;;;;;2256388;61;20417;-70
2022/11/20 06:28:09;0.00;0.00;0.62;0.00;0.00;0.62;6.33;5.73;;;18.80;20.90;;;;;;2255551;61;20369;-69
2022/11/20 06:30:54;0.00;0.00;0.62;0.00;0.00;0.62;6.37;5.50;;;18.80;20.80;;;;;;2254955;61;20821;-70
2022/11/20 06:33:40;0.00;0.00;0.62;0.00;0.00;0.62;5.93;5.20;;;18.80;20.90;;;;;;2256476;61;20366;-70
2022/11/20 06:36:25;0.00;0.00;0.62;0.00;0.00;0.62;6.20;5.50;;;18.80;20.90;;;;;;2255478;61;20366;-71
2022/11/20 06:39:10;0.00;0.00;0.62;0.00;0.00;0.62;5.33;4.70;;;18.80;20.90;;;;;;2255322;61;20385;-70
2022/11/20 06:41:55;0.00;0.00;0.62;0.00;0.00;0.62;5.70;5.10;;;18.70;20.90;;;;;;2255726;61;20944;-70
2022/11/20 06:44:40;0.00;0.00;0.62;0.00;0.00;0.62;5.40;4.90;;;18.70;20.90;;;;;;2256007;61;20357;-70
2022/11/20 06:47:24;0.00;0.00;0.62;0.00;0.00;0.62;6.23;5.37;;;18.70;20.90;;;;;;2256347;61;20440;-69
2022/11/20 06:50:11;0.00;0.00;0.62;0.00;0.00;0.62;5.80;5.27;;;18.70;20.90;;;;;;2256560;61;20382;-69
2022/11/20 06:52:55;0.00;0.00;0.62;0.00;0.00;0.62;7.20;6.07;;;18.60;20.90;;;;;;2256044;61;20405;-69
2022/11/20 06:55:43;0.00;0.00;0.62;0.00;0.00;0.62;5.97;5.37;;;18.60;20.80;;;;;;2256811;61;20397;-69
2022/11/20 06:58:30;0.00;0.00;0.62;0.00;0.00;0.62;5.90;4.97;;;18.60;20.90;;;;;;2255973;61;20513;-71
2022/11/20 07:01:15;0.00;0.00;0.62;0.00;0.00;0.62;6.87;5.13;;;18.60;20.90;;;;;;2256204;61;20421;-70
2022/11/20 07:04:00;0.00;0.00;0.62;0.00;0.00;0.62;5.97;5.00;;;18.60;20.90;;;;;;2256285;61;20445;-69
2022/11/20 07:06:46;0.00;0.00;0.62;0.00;0.00;0.62;5.57;5.07;;;18.60;20.90;;;;;;2256353;61;20913;-69
2022/11/20 07:09:31;0.00;0.00;0.62;0.00;0.00;0.62;5.20;4.60;;;18.60;20.90;;;;;;2256260;61;20471;-69
2022/11/20 07:12:15;0.00;0.00;0.62;0.00;0.00;0.62;6.27;4.80;;;18.60;20.90;;;;;;2256137;61;20454;-69
2022/11/20 07:15:00;0.00;0.00;0.62;0.00;0.00;0.62;5.53;4.93;;;18.50;20.90;;;;;;2256163;61;20878;-69
2022/11/20 07:17:44;0.00;0.00;0.62;0.00;0.00;0.62;5.43;4.93;;;18.50;20.90;;;;;;2256493;61;20397;-69
2022/11/20 07:20:30;0.00;0.00;0.62;0.00;0.00;0.62;7.10;5.63;;;18.50;20.90;;;;;;2255913;61;20365;-70
2022/11/20 07:23:17;0.00;0.00;0.62;0.00;0.00;0.62;6.00;5.10;;;18.50;20.90;;;;;;2256092;61;20825;-69
2022/11/20 07:26:04;0.00;0.00;0.62;0.00;0.00;0.62;6.47;4.97;;;18.50;20.90;;;;;;2256464;61;20370;-69
2022/11/20 07:28:49;0.00;0.00;0.62;0.00;0.00;0.62;6.50;5.93;;;18.40;20.80;;;;;;2256585;61;20390;-70
2022/11/20 07:31:33;0.00;0.00;0.62;0.00;0.00;0.62;5.50;4.90;;;18.40;21.30;;;;;;2256405;61;20425;-70
2022/11/20 07:34:18;0.00;0.00;0.62;0.00;0.00;0.62;6.30;5.30;;;18.40;20.80;;;;;;2256016;61;20489;-68
2022/11/20 07:37:02;0.00;0.00;0.62;0.00;0.00;0.62;5.23;4.70;;;18.40;20.90;;;;;;2256120;61;20405;-68
2022/11/20 07:39:48;0.00;0.00;0.62;0.00;0.00;0.62;6.60;4.97;;;18.30;20.70;;;;;;2256422;61;20385;-69
2022/11/20 07:42:33;0.00;0.00;0.62;0.00;0.00;0.62;5.63;4.60;;;18.30;20.70;;;;;;2256298;61;20419;-70
2022/11/20 07:45:19;0.00;0.00;0.62;0.00;0.00;0.62;4.90;4.27;;;18.30;20.80;;;;;;2255709;61;20393;-68
2022/11/20 07:48:05;0.00;0.00;0.62;0.00;0.00;0.62;4.80;4.20;;;18.30;20.80;;;;;;2256510;61;20505;-68
2022/11/20 07:50:53;0.00;0.00;0.62;0.00;0.00;0.62;6.10;4.73;;;18.30;20.80;;;;;;2256465;61;21157;-71
2022/11/20 07:53:37;0.00;0.00;0.62;0.00;0.00;0.62;5.20;4.03;;;18.30;20.90;;;;;;2256131;61;20416;-70
2022/11/20 07:56:23;0.00;0.00;0.62;0.00;0.00;0.62;5.00;4.37;;;18.20;20.80;;;;;;2255622;61;20416;-69
2022/11/20 07:59:08;0.00;0.00;0.62;0.00;0.00;0.62;5.37;4.83;;;18.20;20.80;;;;;;2256148;61;20448;-69
2022/11/20 08:01:52;0.00;0.00;0.62;0.00;0.00;0.62;4.73;4.33;;;18.30;20.90;;;;;;2256576;61;20393;-69
2022/11/20 08:04:37;0.00;0.00;0.62;0.00;0.00;0.62;4.80;4.30;;;18.20;20.80;;;;;;2256397;61;20432;-69
2022/11/20 08:07:22;0.00;0.00;0.62;0.00;0.00;0.62;5.40;4.40;;;18.20;20.80;;;;;;2255737;61;20369;-72
2022/11/20 08:10:09;0.00;0.00;0.62;0.00;0.00;0.62;5.13;3.93;;;18.20;20.90;;;;;;2256638;61;20469;-73
2022/11/20 08:15:58;0.00;0.00;0.62;0.00;0.00;0.62;3.93;3.53;;;18.20;20.90;;;;;;2255747;61;20409;-69
2022/11/20 08:18:43;0.00;0.00;0.62;0.00;0.00;0.62;4.00;3.60;;;18.20;21.00;;;;;;2255899;61;20385;-70
2022/11/20 08:21:27;0.00;0.00;0.62;0.00;0.00;0.62;5.00;4.00;;;18.20;21.10;;;;;;2255829;61;20409;-71
2022/11/20 08:24:12;0.00;0.00;0.62;0.00;0.00;0.62;3.90;3.30;;;18.20;21.20;;;;;;2256557;61;20404;-68
2022/11/20 08:26:58;0.00;0.00;0.62;0.00;0.00;0.62;4.83;3.57;;;18.20;21.20;;;;;;2256253;61;20370;-69
2022/11/20 08:29:45;0.00;0.00;0.62;0.00;0.00;0.62;3.93;3.40;;;18.20;21.30;;;;;;2255782;61;20458;-69
2022/11/20 08:32:29;0.00;0.00;0.62;0.00;0.00;0.62;4.00;3.60;;;18.20;21.30;;;;;;2256662;61;20882;-70
2022/11/20 08:35:14;0.00;0.00;0.62;0.00;0.00;0.62;3.93;3.10;;;18.20;21.40;;;;;;2256085;61;20972;-73
2022/11/20 08:37:59;0.00;0.00;0.62;0.00;0.00;0.62;3.57;3.27;;;18.20;21.60;;;;;;2255745;61;20501;-73
2022/11/20 08:41:23;0.00;0.00;0.62;0.00;0.00;0.62;4.30;3.30;;;18.30;21.70;;;;;;2253794;61;20997;-69
2022/11/20 08:43:57;0.00;0.00;0.62;0.00;0.00;0.62;4.17;3.00;;;18.30;21.80;;;;;;2255356;61;20508;-71
2022/11/20 08:46:45;0.00;0.00;0.62;0.00;0.00;0.62;3.20;2.83;;;18.30;21.80;;;;;;2256530;61;20760;-71
2022/11/20 08:49:30;0.00;0.00;0.62;0.00;0.00;0.62;3.80;2.90;;;18.30;21.90;;;;;;2255792;61;20394;-69
2022/11/20 08:52:15;0.00;0.00;0.62;0.00;0.00;0.62;3.00;2.70;;;18.30;21.90;;;;;;2255987;61;20397;-73
2022/11/20 08:54:59;0.00;0.00;0.62;0.00;0.00;0.62;2.80;2.50;;;18.30;22.00;;;;;;2561408;45;20382;-70
2022/11/20 08:57:44;0.00;0.00;0.62;0.00;0.00;0.62;3.30;3.00;;;18.30;22.00;;;;;;2252272;61;20771;-74
2022/11/20 09:00:28;0.00;0.00;0.62;0.00;0.00;0.62;2.60;2.40;;;18.40;22.10;;;;;;2252156;61;20422;-71
2022/11/20 09:03:14;0.00;0.00;0.62;0.00;0.00;0.62;3.30;2.50;;;18.40;22.20;;;;;;2252075;61;20763;-69
2022/11/20 09:06:00;0.00;0.00;0.62;0.00;0.00;0.62;3.90;2.60;;;18.40;22.20;;;;;;2251825;61;20414;-68
2022/11/20 09:08:45;0.00;0.00;0.62;0.00;0.00;0.62;3.10;2.60;;;18.40;22.20;;;;;;2252041;61;20386;-65
2022/11/20 09:11:29;0.00;0.00;0.62;0.00;0.00;0.62;2.43;2.20;;;18.40;22.20;;;;;;2251274;61;20442;-72
2022/11/20 09:14:14;0.00;0.00;0.62;0.00;0.00;0.62;2.90;2.50;;;18.50;22.20;;;;;;2251751;61;20449;-71
2022/11/20 09:16:59;0.00;0.00;0.62;0.00;0.00;0.62;4.03;2.77;;;18.50;22.30;;;;;;2252421;61;20410;-75
2022/11/20 09:19:45;0.00;0.00;0.62;0.00;0.00;0.62;3.83;2.50;;;18.50;22.30;;;;;;2252157;61;20861;-72
2022/11/20 09:22:30;0.00;0.00;0.62;0.00;0.00;0.62;3.23;2.90;;;18.50;22.30;;;;;;2251705;61;20354;-75
2022/11/20 09:25:14;0.00;0.00;0.62;0.00;0.00;0.62;2.50;2.00;;;18.50;22.30;;;;;;2251930;61;20914;-69
2022/11/20 09:28:00;0.00;0.00;0.62;0.00;0.00;0.62;2.53;2.20;;;18.60;22.40;;;;;;2251611;61;20359;-68
2022/11/20 09:30:45;0.00;0.00;0.62;0.00;0.00;0.62;3.33;2.30;;;18.60;22.30;;;;;;2252372;61;20350;-71
2022/11/20 09:33:30;0.00;0.00;0.62;0.00;0.00;0.62;3.03;2.47;;;18.60;22.40;;;;;;2251206;61;20369;-69
2022/11/20 09:36:18;0.00;0.00;0.62;0.00;0.00;0.62;3.10;2.40;;;18.60;22.40;;;;;;2292155;58;20363;-70
2022/11/20 09:39:03;0.00;0.00;0.62;0.00;0.00;0.62;3.30;2.60;;;18.60;22.40;;;;;;2256225;61;20454;-69
2022/11/20 09:42:14;0.00;0.00;0.62;0.00;0.00;0.62;2.50;2.00;;;18.70;22.50;;;;;;2255979;61;20469;-71
2022/11/20 09:45:15;0.00;0.00;0.62;0.00;0.00;0.62;2.87;2.20;;;18.70;22.60;;;;;;2255497;61;20920;-71
2022/11/20 09:48:40;0.00;0.00;0.62;0.00;0.00;0.62;3.00;2.43;;;18.70;22.60;;;;;;2255603;61;20792;-70
2022/11/20 09:51:39;0.00;0.00;0.62;0.00;0.00;0.62;2.20;1.80;;;18.80;22.70;;;;;;2255859;61;20401;-67
2022/11/20 09:54:31;0.00;0.00;0.62;0.00;0.00;0.62;2.40;1.83;;;18.80;22.70;;;;;;2255917;61;20385;-68
2022/11/20 09:57:21;0.00;0.00;0.62;0.00;0.00;0.62;2.83;2.30;;;18.80;22.70;;;;;;2256264;61;20374;-75
2022/11/20 10:00:12;0.00;0.00;0.62;0.00;0.00;0.62;5.20;2.00;;;18.90;22.70;;;;;;2256037;61;20905;-72
2022/11/20 10:03:02;0.00;0.00;0.62;0.00;0.00;0.62;2.70;2.00;;;18.90;22.80;;;;;;2255850;61;20416;-71
2022/11/20 10:05:52;0.00;0.00;0.62;0.00;0.00;0.62;2.43;1.90;;;18.90;22.70;;;;;;2255378;61;20889;-69
2022/11/20 10:08:44;0.00;0.00;0.62;0.00;0.00;0.62;2.67;2.10;;;18.90;22.70;;;;;;2499557;53;20380;-70
2022/11/20 10:11:41;0.00;0.00;0.62;0.00;0.00;0.62;2.73;2.00;;;19.00;22.70;;;;;;2252353;61;20895;-69
2022/11/20 10:14:38;0.00;0.00;0.62;0.00;0.00;0.62;2.33;1.77;;;19.00;22.70;;;;;;2250249;61;20434;-67
2022/11/20 10:17:46;0.00;0.00;0.62;0.00;0.00;0.62;2.30;1.87;;;19.10;22.70;;;;;;2254880;61;20497;-70
2022/11/20 10:20:43;0.00;0.00;0.62;0.00;0.00;0.62;2.20;1.90;;;19.10;22.70;;;;;;2255742;61;20361;-72
2022/11/20 10:23:53;0.00;0.00;0.62;0.00;0.00;0.62;2.57;2.33;;;19.20;22.70;;;;;;2256569;61;20742;-70
2022/11/20 10:26:46;0.00;0.00;0.62;0.00;0.00;0.62;2.40;2.00;;;19.20;22.70;;;;;;2256770;61;20370;-72
2022/11/20 10:29:34;0.00;0.00;0.62;0.00;0.00;0.62;3.00;1.83;;;19.20;22.70;;;;;;2256323;61;20520;-72
2022/11/20 10:32:24;0.00;0.00;0.62;0.00;0.00;0.62;3.07;1.97;;;19.30;22.70;;;;;;2255590;61;20380;-68
2022/11/20 10:35:21;0.00;0.00;0.62;0.00;0.00;0.62;3.10;2.20;;;19.30;22.70;;;;;;2297150;58;20972;-71
2022/11/20 10:38:16;0.00;0.00;0.62;0.00;0.00;0.62;2.60;1.53;;;19.30;22.60;;;;;;2256148;61;20434;-71
2022/11/20 10:44:14;0.00;0.00;0.62;0.00;0.00;0.62;2.13;1.70;;;19.40;22.70;;;;;;2255941;61;20376;-74
2022/11/20 10:47:21;0.00;0.00;0.62;0.00;0.00;0.62;2.30;1.60;;;19.40;22.60;;;;;;2255577;61;20399;-72
2022/11/20 10:50:14;0.00;0.00;0.62;0.00;0.00;0.62;2.60;2.17;;;19.40;23.20;;;;;;2255972;61;20929;-73
2022/11/20 10:53:14;0.00;0.00;0.62;0.00;0.00;0.62;3.07;2.37;;;19.50;22.60;;;;;;2256762;61;20892;-72
2022/11/20 10:56:10;0.00;0.00;0.62;0.00;0.00;0.62;2.63;1.90;;;19.50;22.60;;;;;;2256628;61;20405;-68
2022/11/20 10:59:19;0.00;0.00;0.62;0.00;0.00;0.62;2.43;1.70;;;19.50;22.60;;;;;;2255467;61;20389;-72
2022/11/20 11:02:17;0.00;0.00;0.62;0.00;0.00;0.62;2.43;1.67;;;19.50;22.60;;;;;;2249809;61;20846;-73
2022/11/20 11:05:14;0.00;0.00;0.62;0.00;0.00;0.62;2.77;1.50;;;19.60;22.60;;;;;;2255387;61;20761;-68
2022/11/20 11:07:59;0.00;0.00;0.62;0.00;0.00;0.62;2.00;1.60;;;19.60;22.60;;;;;;2256389;61;20799;-75